createdAt,value
2019-05-02T00:01:56.012Z,65.80
2019-05-02T00:04:26.016Z,66.00
2019-05-02T00:07:08.411Z,66.50
2019-05-02T00:09:47.514Z,66.70
2019-05-02T00:12:15.522Z,67.00
2019-05-02T00:14:45.945Z,67.40
2019-05-02T00:17:20.211Z,67.80
2019-05-02T00:19:49.951Z,68.00
2019-05-02T00:22:20.110Z,67.90
2019-05-02T00:24:50.162Z,68.10
2019-05-02T00:27:20.064Z,68.10
2019-05-02T00:29:53.797Z,68.10
2019-05-02T00:32:22.298Z,68.20
2019-05-02T00:34:51.582Z,68.30
2019-05-02T00:37:24.723Z,67.90
2019-05-02T00:39:51.716Z,68.10
2019-05-02T00:42:22.426Z,68.30
2019-05-02T00:44:51.756Z,69.10
2019-05-02T00:47:32.172Z,68.70
2019-05-02T00:50:06.254Z,68.60
2019-05-02T00:52:32.882Z,68.90
2019-05-02T00:55:03.673Z,69.10
2019-05-02T00:57:33.494Z,69.30
2019-05-02T01:00:03.252Z,69.40
2019-05-02T01:02:40.543Z,69.10
2019-05-02T01:05:11.863Z,69.10
2019-05-02T01:07:41.655Z,69.50
2019-05-02T01:10:12.057Z,69.30
2019-05-02T01:12:44.397Z,69.20
2019-05-02T01:15:13.815Z,69.10
2019-05-02T01:17:43.631Z,69.50
2019-05-02T01:20:13.395Z,69.60
2019-05-02T01:22:47.055Z,69.80
2019-05-02T01:25:15.697Z,69.40
2019-05-02T01:28:03.989Z,68.80
2019-05-02T01:31:01.509Z,68.50
2019-05-02T01:33:41.833Z,68.90
2019-05-02T01:36:20.132Z,69.00
2019-05-02T01:38:50.766Z,69.00
2019-05-02T01:41:23.946Z,69.10
2019-05-02T01:43:54.860Z,69.70
2019-05-02T01:46:24.074Z,70.00
2019-05-02T01:48:52.609Z,69.70
2019-05-02T01:51:22.393Z,70.00
2019-05-02T01:53:52.205Z,69.90
2019-05-02T01:56:22.022Z,70.00
2019-05-02T01:58:53.149Z,70.20
2019-05-02T02:01:23.419Z,69.60
2019-05-02T02:03:53.218Z,69.40
2019-05-02T02:06:23.022Z,69.50
2019-05-02T02:08:52.907Z,69.10
2019-05-02T02:11:22.687Z,68.20
2019-05-02T02:13:52.526Z,68.40
2019-05-02T02:16:22.356Z,68.20
2019-05-02T02:18:59.005Z,67.70
2019-05-02T02:21:36.792Z,67.50
2019-05-02T02:24:21.146Z,68.20
2019-05-02T02:26:49.886Z,67.60
2019-05-02T02:29:19.930Z,68.20
2019-05-02T02:31:49.701Z,68.10
2019-05-02T02:34:21.520Z,68.50
2019-05-02T02:36:49.796Z,68.00
2019-05-02T02:39:19.582Z,67.80
2019-05-02T02:41:52.003Z,68.10
2019-05-02T02:44:33.923Z,67.90
2019-05-02T02:47:05.168Z,67.90
2019-05-02T02:49:34.957Z,67.30
2019-05-02T02:52:06.847Z,68.30
2019-05-02T02:54:42.740Z,67.90
2019-05-02T02:57:06.714Z,67.50
2019-05-02T02:59:36.465Z,67.30
2019-05-02T03:02:10.132Z,67.20
2019-05-02T03:04:44.120Z,67.40
2019-05-02T03:07:08.027Z,67.40
2019-05-02T03:09:37.836Z,66.50
2019-05-02T03:12:41.576Z,66.70
2019-05-02T03:15:21.090Z,66.00
2019-05-02T03:17:46.859Z,66.70
2019-05-02T03:20:16.642Z,65.60
2019-05-02T03:22:46.481Z,65.50
2019-05-02T03:25:18.329Z,65.80
2019-05-02T03:27:47.289Z,65.60
2019-05-02T03:30:31.012Z,65.50
2019-05-02T03:33:02.487Z,65.30
2019-05-02T03:35:40.301Z,65.10
2019-05-02T03:37:53.312Z,64.80
2019-05-02T03:40:23.297Z,64.70
2019-05-02T03:42:53.175Z,64.80
2019-05-02T03:45:23.106Z,64.40
2019-05-02T03:47:52.908Z,63.90
2019-05-02T03:50:31.393Z,63.70
2019-05-02T03:52:54.278Z,63.30
2019-05-02T03:55:30.758Z,63.20
2019-05-02T03:57:56.458Z,62.00
2019-05-02T04:00:26.377Z,62.60
2019-05-02T04:03:00.402Z,62.40
2019-05-02T04:05:33.688Z,63.10
2019-05-02T04:07:59.738Z,62.80
2019-05-02T04:11:06.458Z,62.90
2019-05-02T04:13:38.168Z,62.40
2019-05-02T04:16:14.594Z,62.10
2019-05-02T04:18:39.761Z,62.30
2019-05-02T04:21:09.564Z,61.50
2019-05-02T04:23:39.544Z,61.10
2019-05-02T04:26:12.821Z,61.20
2019-05-02T04:28:45.570Z,60.80
2019-05-02T04:31:12.532Z,60.60
2019-05-02T04:33:42.607Z,60.70
2019-05-02T04:36:15.274Z,60.60
2019-05-02T04:38:47.978Z,60.80
2019-05-02T04:41:21.424Z,60.10
2019-05-02T04:43:51.438Z,60.00
2019-05-02T04:46:22.368Z,59.50
2019-05-02T04:48:52.018Z,60.70
2019-05-02T04:51:20.486Z,59.60
2019-05-02T04:53:50.062Z,59.80
2019-05-02T04:56:20.029Z,59.80
2019-05-02T04:58:49.842Z,59.90
2019-05-02T05:01:21.389Z,60.10
2019-05-02T05:03:58.358Z,61.00
2019-05-02T05:06:22.562Z,61.30
2019-05-02T05:08:52.392Z,60.60
2019-05-02T05:11:25.019Z,60.60
2019-05-02T05:13:56.901Z,60.40
2019-05-02T05:16:23.894Z,60.60
2019-05-02T05:18:53.693Z,60.90
2019-05-02T05:21:24.679Z,61.20
2019-05-02T05:24:13.874Z,61.30
2019-05-02T05:26:44.935Z,61.50
2019-05-02T05:29:19.373Z,62.40
2019-05-02T05:31:48.157Z,62.00
2019-05-02T05:34:17.365Z,62.30
2019-05-02T05:36:48.138Z,62.30
2019-05-02T05:39:18.065Z,62.50
2019-05-02T05:41:52.194Z,62.10
2019-05-02T05:44:18.269Z,62.50
2019-05-02T05:46:49.489Z,62.80
2019-05-02T05:49:21.644Z,63.00
2019-05-02T05:51:54.223Z,62.90
2019-05-02T05:54:20.020Z,63.10
2019-05-02T05:56:49.765Z,63.10
2019-05-02T05:59:22.245Z,63.20
2019-05-02T06:01:51.642Z,64.00
2019-05-02T06:04:23.617Z,64.60
2019-05-02T06:06:54.052Z,65.70
2019-05-02T06:09:26.247Z,64.80
2019-05-02T06:11:55.438Z,64.70
2019-05-02T06:14:26.316Z,64.30
2019-05-02T06:16:56.342Z,64.90
2019-05-02T06:19:26.173Z,66.20
2019-05-02T06:21:55.961Z,64.50
2019-05-02T06:24:25.786Z,64.70
2019-05-02T06:26:55.559Z,64.50
2019-05-02T06:29:25.328Z,65.90
2019-05-02T06:31:55.167Z,65.20
2019-05-02T06:34:24.964Z,64.80
2019-05-02T06:36:54.750Z,66.00
2019-05-02T06:39:27.184Z,65.30
2019-05-02T06:41:57.516Z,65.40
2019-05-02T06:44:26.352Z,65.00
2019-05-02T06:46:59.114Z,65.50
2019-05-02T06:49:27.611Z,64.50
2019-05-02T06:51:57.687Z,64.90
2019-05-02T06:54:27.719Z,64.60
2019-05-02T06:56:57.529Z,65.60
2019-05-02T06:59:27.357Z,65.10
2019-05-02T07:01:58.670Z,65.10
2019-05-02T07:04:28.692Z,65.00
2019-05-02T07:06:59.689Z,64.90
2019-05-02T07:09:40.330Z,65.70
2019-05-02T07:12:01.728Z,65.10
2019-05-02T07:14:31.753Z,65.00
2019-05-02T07:17:20.374Z,65.80
2019-05-02T07:19:53.088Z,65.10
2019-05-02T07:22:22.872Z,65.30
2019-05-02T07:24:52.652Z,65.50
2019-05-02T07:27:22.419Z,64.90
2019-05-02T07:29:57.651Z,65.10
2019-05-02T07:32:24.866Z,64.40
2019-05-02T07:34:53.966Z,64.70
2019-05-02T07:37:23.762Z,64.80
2019-05-02T07:39:53.601Z,65.30
2019-05-02T07:42:23.374Z,63.70
2019-05-02T07:44:53.172Z,64.80
2019-05-02T07:47:22.960Z,63.60
2019-05-02T07:49:52.740Z,63.30
2019-05-02T07:52:22.589Z,63.40
2019-05-02T07:54:56.250Z,63.30
2019-05-02T07:57:25.230Z,64.30
2019-05-02T07:59:55.058Z,64.30
2019-05-02T08:02:26.420Z,63.70
2019-05-02T08:04:56.375Z,64.30
2019-05-02T08:07:33.869Z,63.50
2019-05-02T08:09:57.574Z,63.20
2019-05-02T08:12:27.412Z,63.50
2019-05-02T08:15:00.283Z,62.90
2019-05-02T08:17:28.686Z,64.50
2019-05-02T08:19:58.482Z,63.90
2019-05-02T08:22:28.281Z,64.60
2019-05-02T08:24:58.059Z,64.50
2019-05-02T08:27:42.396Z,63.80
2019-05-02T08:30:21.366Z,63.30
2019-05-02T08:32:51.251Z,63.00
2019-05-02T08:35:21.019Z,63.60
2019-05-02T08:37:50.840Z,64.10
2019-05-02T08:40:20.676Z,63.50
2019-05-02T08:42:50.403Z,62.20
2019-05-02T08:45:20.199Z,62.50
2019-05-02T08:47:50.016Z,62.60
2019-05-02T08:50:19.997Z,63.20
2019-05-02T08:52:49.833Z,62.70
2019-05-02T08:55:19.566Z,62.80
2019-05-02T08:57:49.356Z,61.20
2019-05-02T09:00:19.358Z,61.70
2019-05-02T09:02:49.150Z,61.70
2019-05-02T09:05:19.058Z,60.90
2019-05-02T09:07:48.858Z,61.20
2019-05-02T09:10:18.700Z,61.30
2019-05-02T09:12:48.532Z,59.10
2019-05-02T09:15:18.382Z,59.20
2019-05-02T09:17:54.868Z,59.00
2019-05-02T09:20:20.837Z,60.60
2019-05-02T09:22:55.697Z,60.30
2019-05-02T09:25:22.887Z,61.00
2019-05-02T09:27:52.831Z,60.40
2019-05-02T09:30:25.730Z,60.10
2019-05-02T09:32:57.257Z,60.20
2019-05-02T09:35:25.845Z,59.30
2019-05-02T09:37:55.656Z,59.90
2019-05-02T09:40:25.475Z,59.70
2019-05-02T09:43:00.058Z,59.30
2019-05-02T09:45:33.476Z,59.00
2019-05-02T09:48:07.138Z,59.10
2019-05-02T09:50:36.569Z,59.10
2019-05-02T09:53:04.754Z,59.20
2019-05-02T09:55:34.597Z,58.90
2019-05-02T09:58:04.494Z,58.90
2019-05-02T10:01:02.546Z,59.70
2019-05-02T10:03:32.627Z,59.10
2019-05-02T10:06:03.111Z,59.20
2019-05-02T10:08:33.234Z,59.30
2019-05-02T10:11:03.080Z,60.50
2019-05-02T10:13:33.899Z,60.10
2019-05-02T10:16:03.789Z,60.40
2019-05-02T10:18:33.569Z,59.90
2019-05-02T10:21:07.968Z,59.90
2019-05-02T10:23:34.917Z,60.40
2019-05-02T10:26:05.061Z,58.60
2019-05-02T10:28:34.833Z,58.50
2019-05-02T10:31:04.781Z,59.10
2019-05-02T10:33:37.583Z,59.30
2019-05-02T10:36:04.985Z,58.50
2019-05-02T10:38:34.758Z,57.70
2019-05-02T10:41:04.917Z,58.80
2019-05-02T10:43:34.781Z,59.10
2019-05-02T10:46:14.752Z,57.80
2019-05-02T10:48:52.520Z,58.90
2019-05-02T10:51:43.432Z,58.70
2019-05-02T10:54:09.044Z,59.60
2019-05-02T10:56:38.861Z,59.60
2019-05-02T10:59:08.652Z,58.80
2019-05-02T11:02:09.337Z,59.20
2019-05-02T11:04:43.238Z,59.80
2019-05-02T11:07:17.089Z,59.80
2019-05-02T11:09:44.482Z,59.70
2019-05-02T11:12:24.292Z,60.10
2019-05-02T11:14:57.870Z,59.50
2019-05-02T11:17:36.401Z,60.80
2019-05-02T11:20:09.854Z,60.70
2019-05-02T11:22:40.149Z,59.60
2019-05-02T11:25:11.988Z,59.80
2019-05-02T11:27:41.861Z,59.40
2019-05-02T11:30:16.888Z,61.40
2019-05-02T11:32:43.898Z,59.80
2019-05-02T11:35:13.784Z,60.20
2019-05-02T11:37:43.598Z,60.10
2019-05-02T11:40:13.507Z,61.60
2019-05-02T11:42:43.315Z,61.80
2019-05-02T11:45:13.291Z,60.30
2019-05-02T11:47:43.105Z,59.60
2019-05-02T11:50:12.970Z,59.50
2019-05-02T11:52:42.781Z,59.40
2019-05-02T11:55:13.097Z,59.70
2019-05-02T11:57:43.104Z,59.20
2019-05-02T12:00:13.806Z,58.30
2019-05-02T12:03:02.469Z,58.60
2019-05-02T12:05:39.734Z,58.60
2019-05-02T12:08:11.631Z,57.50
2019-05-02T12:10:42.237Z,57.70
2019-05-02T12:13:15.585Z,58.40
2019-05-02T12:15:44.337Z,58.70
2019-05-02T12:18:14.039Z,57.80
2019-05-02T12:20:43.822Z,58.00
2019-05-02T12:23:13.905Z,56.60
2019-05-02T12:25:43.767Z,56.20
2019-05-02T12:28:13.496Z,56.70
2019-05-02T12:30:43.359Z,55.80
2019-05-02T12:33:13.913Z,56.20
2019-05-02T12:35:43.714Z,55.30
2019-05-02T12:38:13.585Z,55.60
2019-05-02T12:40:43.370Z,56.20
2019-05-02T12:43:13.172Z,56.50
2019-05-02T12:45:43.143Z,55.30
2019-05-02T12:48:13.166Z,55.60
2019-05-02T12:50:43.017Z,56.20
2019-05-02T12:53:12.834Z,54.60
2019-05-02T12:55:42.565Z,55.20
2019-05-02T12:58:12.670Z,56.20
2019-05-02T13:00:43.228Z,54.30
2019-05-02T13:03:31.750Z,54.50
2019-05-02T13:06:03.066Z,55.20
2019-05-02T13:08:32.365Z,55.10
2019-05-02T13:11:13.903Z,53.90
2019-05-02T13:13:43.690Z,55.30
2019-05-02T13:16:13.573Z,55.20
2019-05-02T13:18:43.481Z,54.90
2019-05-02T13:21:16.896Z,55.80
2019-05-02T13:24:13.511Z,55.90
2019-05-02T13:26:43.265Z,56.90
2019-05-02T13:29:13.203Z,54.70
2019-05-02T13:31:49.865Z,53.80
2019-05-02T13:34:41.372Z,53.70
2019-05-02T13:37:13.458Z,54.80
2019-05-02T13:39:50.642Z,53.20
2019-05-02T13:42:21.975Z,54.70
2019-05-02T13:44:58.812Z,53.20
2019-05-02T13:47:29.160Z,53.90
2019-05-02T13:50:00.962Z,55.40
2019-05-02T13:52:30.595Z,54.50
2019-05-02T13:55:01.833Z,54.10
2019-05-02T13:57:35.061Z,53.90
2019-05-02T14:00:05.585Z,55.50
2019-05-02T14:02:42.487Z,54.20
2019-05-02T14:05:13.105Z,54.00
2019-05-02T14:07:48.246Z,54.10
2019-05-02T14:10:34.102Z,54.60
2019-05-02T14:13:04.153Z,54.00
2019-05-02T14:15:38.424Z,53.90
2019-05-02T14:18:08.819Z,55.60
2019-05-02T14:20:38.956Z,54.60
2019-05-02T14:23:08.703Z,54.90
2019-05-02T14:25:38.669Z,54.60
2019-05-02T14:28:08.497Z,54.80
2019-05-02T14:30:43.279Z,54.30
2019-05-02T14:33:16.064Z,55.10
2019-05-02T14:35:45.993Z,54.20
2019-05-02T14:38:16.644Z,54.60
2019-05-02T14:41:18.493Z,53.90
2019-05-02T14:43:53.879Z,53.90
2019-05-02T14:46:35.386Z,53.70
2019-05-02T14:48:59.051Z,53.80
2019-05-02T14:51:29.320Z,52.90
2019-05-02T14:54:03.656Z,53.70
2019-05-02T14:56:52.178Z,53.80
2019-05-02T14:59:23.591Z,53.80
2019-05-02T15:02:03.004Z,53.60
2019-05-02T15:04:32.120Z,53.20
2019-05-02T15:07:03.353Z,53.20
2019-05-02T15:09:36.159Z,52.60
2019-05-02T15:12:14.093Z,51.40
2019-05-02T15:14:39.443Z,52.80
2019-05-02T15:17:09.532Z,53.30
2019-05-02T15:19:42.632Z,52.30
2019-05-02T15:22:13.430Z,53.50
2019-05-02T15:24:44.339Z,53.10
2019-05-02T15:27:17.709Z,53.30
2019-05-02T15:29:55.413Z,52.30
2019-05-02T15:32:44.943Z,53.80
2019-05-02T15:35:52.730Z,53.50
2019-05-02T15:38:27.729Z,53.80
2019-05-02T15:40:59.223Z,54.30
2019-05-02T15:43:31.795Z,54.20
2019-05-02T15:46:03.929Z,53.60
2019-05-02T15:48:35.903Z,53.80
2019-05-02T15:51:08.958Z,54.00
2019-05-02T15:53:49.673Z,54.50
2019-05-02T15:56:23.721Z,54.60
2019-05-02T15:58:57.949Z,54.80
2019-05-02T16:01:48.378Z,54.70
2019-05-02T16:04:25.656Z,54.10
2019-05-02T16:07:00.474Z,55.00
2019-05-02T16:09:29.410Z,54.10
2019-05-02T16:12:02.943Z,54.90
2019-05-02T16:14:36.012Z,54.00
2019-05-02T16:17:07.930Z,54.60
2019-05-02T16:19:44.873Z,54.70
2019-05-02T16:22:22.613Z,55.10
2019-05-02T16:24:56.638Z,55.60
2019-05-02T16:27:48.470Z,55.50
2019-05-02T16:30:23.329Z,54.90
2019-05-02T16:33:02.472Z,54.70
2019-05-02T16:35:35.482Z,54.70
2019-05-02T16:38:07.884Z,54.70
2019-05-02T16:40:41.899Z,54.60
2019-05-02T16:43:13.844Z,55.00
2019-05-02T16:45:46.234Z,54.90
2019-05-02T16:48:18.534Z,56.00
2019-05-02T16:50:50.863Z,57.00
2019-05-02T16:53:26.208Z,57.60
2019-05-02T16:55:58.311Z,59.20
2019-05-02T16:58:31.956Z,60.50
2019-05-02T17:01:05.954Z,62.40
2019-05-02T17:03:38.226Z,63.20
2019-05-02T17:06:12.386Z,63.80
2019-05-02T17:09:21.715Z,65.00
2019-05-02T17:11:54.181Z,65.90
2019-05-02T17:14:26.613Z,65.80
2019-05-02T17:17:01.392Z,66.00
2019-05-02T17:19:35.184Z,65.20
2019-05-02T17:22:08.863Z,65.60
2019-05-02T17:24:41.880Z,65.70
2019-05-02T17:27:20.469Z,65.00
2019-05-02T17:29:52.503Z,65.90
2019-05-02T17:32:24.556Z,65.50
2019-05-02T17:34:57.506Z,65.90
2019-05-02T17:37:32.451Z,68.20
2019-05-02T17:40:05.062Z,69.90
2019-05-02T17:42:38.755Z,70.80
2019-05-02T17:45:12.771Z,70.90
2019-05-02T17:47:47.280Z,71.10
2019-05-02T17:50:54.329Z,72.20
2019-05-02T17:53:24.892Z,72.30
2019-05-02T17:55:58.854Z,72.50
2019-05-02T17:58:32.621Z,72.80
2019-05-02T18:01:06.837Z,72.60
2019-05-02T18:03:43.264Z,73.10
2019-05-02T18:06:17.366Z,73.20
2019-05-02T18:08:51.672Z,73.10
2019-05-02T18:11:24.241Z,72.90
2019-05-02T18:13:59.464Z,74.00
2019-05-02T18:16:32.356Z,72.60
2019-05-02T18:19:06.093Z,72.20
2019-05-02T18:21:41.811Z,73.20
2019-05-02T18:24:14.623Z,72.80
2019-05-02T18:26:47.659Z,72.40
2019-05-02T18:29:22.121Z,72.50
2019-05-02T18:31:54.607Z,72.90
2019-05-02T18:34:28.005Z,71.90
2019-05-02T18:37:06.141Z,72.50
2019-05-02T18:39:44.736Z,72.60
2019-05-02T18:42:16.527Z,72.70
2019-05-02T18:44:52.974Z,72.70
2019-05-02T18:47:24.620Z,72.90
2019-05-02T18:50:01.892Z,73.00
2019-05-02T18:52:38.046Z,73.00
2019-05-02T18:55:06.201Z,72.90
2019-05-02T18:57:39.093Z,72.80
2019-05-02T19:00:13.402Z,73.00
2019-05-02T19:02:48.270Z,72.90
2019-05-02T19:05:22.882Z,73.00
2019-05-02T19:07:56.535Z,72.60
2019-05-02T19:10:29.262Z,72.40
2019-05-02T19:13:05.902Z,71.90
2019-05-02T19:15:39.699Z,71.60
2019-05-02T19:18:18.090Z,71.90
2019-05-02T19:21:05.964Z,71.50
2019-05-02T19:23:42.478Z,71.50
2019-05-02T19:26:15.391Z,71.90
2019-05-02T19:28:54.029Z,72.10
2019-05-02T19:31:36.727Z,72.30
2019-05-02T19:34:08.294Z,72.60
2019-05-02T19:36:44.672Z,73.20
2019-05-02T19:39:17.505Z,73.40
2019-05-02T19:41:54.258Z,73.70
2019-05-02T19:44:28.909Z,73.70
2019-05-02T19:47:02.517Z,73.70
2019-05-02T19:49:37.715Z,74.10
2019-05-02T19:52:10.508Z,74.30
2019-05-02T19:54:43.648Z,74.50
2019-05-02T19:57:17.214Z,74.80
2019-05-02T19:59:52.472Z,75.10
2019-05-02T20:02:25.456Z,74.90
2019-05-02T20:04:58.771Z,74.90
2019-05-02T20:07:32.454Z,75.10
2019-05-02T20:10:08.364Z,75.40
2019-05-02T20:12:47.916Z,75.70
2019-05-02T20:15:17.039Z,75.80
2019-05-02T20:17:53.452Z,75.40
2019-05-02T20:20:54.320Z,75.40
2019-05-02T20:23:31.585Z,75.50
2019-05-02T20:26:00.487Z,75.40
2019-05-02T20:28:32.879Z,75.80
2019-05-02T20:31:05.347Z,76.00
2019-05-02T20:33:37.536Z,76.10
2019-05-02T20:36:09.920Z,76.30
2019-05-02T20:38:42.002Z,76.10
2019-05-02T20:41:14.413Z,76.10
2019-05-02T20:43:46.556Z,76.10
2019-05-02T20:46:18.749Z,75.90
2019-05-02T20:48:52.385Z,75.40
2019-05-02T20:51:24.204Z,75.70
2019-05-02T20:53:56.597Z,74.60
2019-05-02T20:56:28.965Z,74.50
2019-05-02T20:59:02.023Z,74.10
2019-05-02T21:01:33.777Z,74.60
2019-05-02T21:04:05.877Z,73.20
2019-05-02T21:07:05.479Z,72.90
2019-05-02T21:10:07.816Z,72.90
2019-05-02T21:12:41.857Z,72.90
2019-05-02T21:15:13.027Z,72.00
2019-05-02T21:17:44.616Z,71.50
2019-05-02T21:20:16.206Z,71.90
2019-05-02T21:22:47.588Z,70.20
2019-05-02T21:25:16.456Z,71.10
2019-05-02T21:27:47.346Z,71.60
2019-05-02T21:30:22.992Z,70.10
2019-05-02T21:32:54.812Z,70.90
2019-05-02T21:35:24.767Z,71.30
2019-05-02T21:37:55.072Z,70.50
2019-05-02T21:40:25.865Z,69.70
2019-05-02T21:42:56.029Z,69.20
2019-05-02T21:45:26.096Z,69.00
2019-05-02T21:47:55.962Z,69.40
2019-05-02T21:50:42.661Z,68.80
2019-05-02T21:53:23.848Z,69.70
2019-05-02T21:56:08.986Z,68.30
2019-05-02T21:58:38.847Z,68.40
2019-05-02T22:01:13.566Z,68.20
2019-05-02T22:03:43.447Z,68.70
2019-05-02T22:06:13.349Z,67.90
2019-05-02T22:08:43.148Z,68.00
2019-05-02T22:11:12.979Z,68.40
2019-05-02T22:13:42.809Z,68.00
2019-05-02T22:16:13.051Z,68.20
2019-05-02T22:18:43.078Z,67.90
2019-05-02T22:21:12.945Z,68.80
2019-05-02T22:23:42.746Z,69.10
2019-05-02T22:26:12.901Z,69.00
2019-05-02T22:28:42.699Z,67.80
2019-05-02T22:31:12.605Z,68.40
2019-05-02T22:33:44.687Z,67.00
2019-05-02T22:36:13.892Z,66.70
2019-05-02T22:39:02.584Z,66.20
2019-05-02T22:41:32.671Z,66.60
2019-05-02T22:44:02.595Z,66.60
2019-05-02T22:46:43.415Z,67.50
2019-05-02T22:49:15.085Z,62.90
2019-05-02T22:51:45.146Z,61.20
2019-05-02T22:54:26.694Z,60.60
2019-05-02T22:56:46.541Z,59.90
2019-05-02T22:59:16.360Z,60.20
2019-05-02T23:01:46.214Z,60.00
2019-05-02T23:04:15.985Z,60.30
2019-05-02T23:06:45.942Z,60.30
2019-05-02T23:09:15.918Z,60.30
2019-05-02T23:11:45.745Z,60.60
2019-05-02T23:14:15.634Z,60.90
2019-05-02T23:16:45.472Z,61.70
2019-05-02T23:19:15.289Z,60.70
2019-05-02T23:21:45.110Z,60.90
2019-05-02T23:24:37.042Z,60.20
2019-05-02T23:27:22.279Z,60.90
2019-05-02T23:29:52.192Z,61.60
2019-05-02T23:32:23.783Z,62.10
2019-05-02T23:34:53.471Z,62.20
2019-05-02T23:37:23.368Z,61.80
2019-05-02T23:39:53.160Z,61.10
2019-05-02T23:42:23.019Z,61.30
2019-05-02T23:44:52.930Z,61.40
2019-05-02T23:47:22.773Z,60.60
2019-05-02T23:49:52.544Z,60.40
2019-05-02T23:52:22.568Z,60.60
2019-05-02T23:54:52.672Z,60.80
2019-05-02T23:57:23.093Z,60.30
2019-05-02T23:59:53.061Z,60.60
